This is the latest recevied weather packets stored in our database for station/object OE7DRT-13. If no packets are shown the sender has not sent any weather packets the latest 10 day(s).
| Time | Temp. | Humidity | Pressure | Rain* | Wind** | Luminosity | Snow |
|---|---|---|---|---|---|---|---|
| 1777596324 | 2.78° C | 79% | 1025.6 hPa | 0 mm | - | - | - |
| 1777595721 | 2.78° C | 77% | 1025.7 hPa | 0 mm | - | - | - |
| 1777595419 | 3.33° C | 78% | 1025.7 hPa | 0 mm | - | - | - |
| 1777594232 | 3.33° C | 75% | 1025.6 hPa | 0 mm | - | - | - |
| 1777592723 | 3.33° C | 73% | 1025.5 hPa | 0 mm | - | - | - |
| 1777591818 | 3.89° C | 72% | 1025.5 hPa | 0 mm | - | - | - |
| 1777590933 | 4.44° C | 70% | 1025.5 hPa | 0 mm | - | - | - |
| 1777590330 | 5° C | 68% | 1025.6 hPa | 0 mm | - | - | - |
| 1777585220 | 6.67° C | 62% | 1025.1 hPa | 0 mm | - | - | - |
| 1777584337 | 6.67° C | 62% | 1025 hPa | 0 mm | - | - | - |
| 1777583734 | 6.67° C | 61% | 1024.8 hPa | 0 mm | - | - | - |
| 1777582224 | 7.22° C | 60% | 1024.6 hPa | 0 mm | - | - | - |
| 1777580434 | 7.78° C | 60% | 1024.2 hPa | 0 mm | - | - | - |
| 1777578322 | 8.33° C | 57% | 1023.8 hPa | 0 mm | - | - | - |
| 1777576231 | 9.44° C | 56% | 1023.3 hPa | 0 mm | - | - | - |
| 1777575949 | 9.44° C | 56% | 1023.2 hPa | 0 mm | - | - | - |
| 1777575326 | 9.44° C | 55% | 1022.9 hPa | 0 mm | - | - | - |
| 1777574420 | 10° C | 54% | 1022.6 hPa | 0 mm | - | - | - |
| 1777573233 | 10.56° C | 52% | 1022.3 hPa | 0 mm | - | - | - |
| 1777572328 | 10.56° C | 57% | 1022 hPa | 0 mm | - | - | - |
| 1777570518 | 12.22° C | 45% | 1021.5 hPa | 0 mm | - | - | - |
| 1777569634 | 13.33° C | 38% | 1021.3 hPa | 0 mm | - | - | - |
| 1777568728 | 13.33° C | 36% | 1021.2 hPa | 0 mm | - | - | - |
| 1777568427 | 13.89° C | 35% | 1021.2 hPa | 0 mm | - | - | - |
| 1777568124 | 13.89° C | 35% | 1021.1 hPa | 0 mm | - | - | - |
* Rain latest hour (hover to see other rain measurements)
** Current wind speed in m/s (hover to see current wind gust speed)